createdAt,value
2023-01-12T00:04:55.321Z,99676.66
2023-01-12T00:09:56.924Z,99689.03
2023-01-12T00:14:58.513Z,99672.84
2023-01-12T00:20:00.147Z,99679.28
2023-01-12T00:25:01.792Z,99671.88
2023-01-12T00:30:03.477Z,99663.16
2023-01-12T00:35:05.494Z,99651.25
2023-01-12T00:40:09.855Z,99650.34
2023-01-12T00:45:23.535Z,99647.34
2023-01-12T00:50:25.203Z,99650.31
2023-01-12T00:55:26.862Z,99648.41
2023-01-12T01:00:28.436Z,99643.06
2023-01-12T01:05:30.564Z,99637.28
2023-01-12T01:10:32.156Z,99621.00
2023-01-12T01:15:33.794Z,99628.28
2023-01-12T01:20:36.709Z,99643.16
2023-01-12T01:25:38.338Z,99657.50
2023-01-12T01:30:39.971Z,99665.16
2023-01-12T01:35:41.579Z,99665.28
2023-01-12T01:40:43.655Z,99669.03
2023-01-12T01:45:56.125Z,99683.78
2023-01-12T01:51:04.541Z,99692.22
2023-01-12T01:56:11.515Z,99675.31
2023-01-12T02:01:13.156Z,99687.06
2023-01-12T02:06:15.557Z,99692.72
2023-01-12T02:11:36.266Z,99706.16
2023-01-12T02:16:46.545Z,99710.19
2023-01-12T02:21:54.118Z,99692.94
2023-01-12T02:27:23.068Z,99695.09
2023-01-12T02:32:40.116Z,99690.13
2023-01-12T02:38:17.088Z,99676.19
2023-01-12T02:43:27.803Z,99671.38
2023-01-12T02:48:54.851Z,99642.63
2023-01-12T02:54:02.862Z,99636.22
2023-01-12T02:59:09.382Z,99633.91
2023-01-12T03:04:11.691Z,99640.34
2023-01-12T03:09:15.947Z,99652.25
2023-01-12T03:14:18.113Z,99640.88
2023-01-12T03:19:29.753Z,99630.25
2023-01-12T03:24:40.219Z,99618.56
2023-01-12T03:29:47.178Z,99616.81
2023-01-12T03:34:49.248Z,99609.00
2023-01-12T03:39:59.323Z,99605.88
2023-01-12T03:45:36.484Z,99599.91
2023-01-12T03:50:52.975Z,99594.94
2023-01-12T03:55:59.561Z,99594.72
2023-01-12T04:01:02.356Z,99595.97
2023-01-12T04:06:04.304Z,99596.88
2023-01-12T04:11:26.127Z,99596.47
2023-01-12T04:16:27.844Z,99580.75
2023-01-12T04:21:48.101Z,99569.00
2023-01-12T04:26:49.713Z,99561.97
2023-01-12T04:31:51.421Z,99559.78
2023-01-12T04:36:53.147Z,99557.25
2023-01-12T04:41:55.007Z,99551.47
2023-01-12T04:46:56.698Z,99553.53
2023-01-12T04:51:58.316Z,99542.25
2023-01-12T04:56:59.922Z,99538.44
2023-01-12T05:02:01.561Z,99529.97
2023-01-12T05:07:03.405Z,99528.47
2023-01-12T05:12:05.404Z,99525.22
2023-01-12T05:17:07.037Z,99523.97
2023-01-12T05:22:08.914Z,99515.69
2023-01-12T05:27:10.563Z,99511.38
2023-01-12T05:32:12.166Z,99507.56
2023-01-12T05:37:13.817Z,99511.38
2023-01-12T05:42:34.125Z,99499.66
2023-01-12T05:47:35.731Z,99502.91
2023-01-12T05:52:37.369Z,99509.41
2023-01-12T05:57:38.967Z,99498.72
2023-01-12T06:02:40.590Z,99493.91
2023-01-12T06:07:42.976Z,99494.75
2023-01-12T06:13:03.185Z,99495.56
2023-01-12T06:18:04.958Z,99506.25
2023-01-12T06:23:06.560Z,99494.94
2023-01-12T06:28:08.182Z,99495.09
2023-01-12T06:33:09.818Z,99497.47
2023-01-12T06:38:11.414Z,99499.97
2023-01-12T06:43:13.034Z,99491.72
2023-01-12T06:48:14.654Z,99492.88
2023-01-12T06:53:16.282Z,99484.72
2023-01-12T06:58:18.205Z,99489.75
2023-01-12T07:03:20.336Z,99498.78
2023-01-12T07:08:21.973Z,99507.28
2023-01-12T07:13:23.589Z,99508.00
2023-01-12T07:18:25.232Z,99500.25
2023-01-12T07:23:26.889Z,99501.03
2023-01-12T07:28:28.595Z,99496.91
2023-01-12T07:33:30.984Z,99501.59
2023-01-12T07:38:32.679Z,99497.28
2023-01-12T07:43:34.298Z,99504.50
2023-01-12T07:48:35.953Z,99496.94
2023-01-12T07:53:37.574Z,99508.66
2023-01-12T07:58:39.197Z,99508.50
2023-01-12T08:03:40.965Z,99504.81
2023-01-12T08:08:42.893Z,99497.59
2023-01-12T08:13:44.561Z,99497.25
2023-01-12T08:18:58.102Z,99468.06
2023-01-12T08:24:02.085Z,99471.25
2023-01-12T08:29:12.828Z,99468.03
2023-01-12T08:34:14.843Z,99474.41
2023-01-12T08:39:16.476Z,99463.03
2023-01-12T08:44:19.065Z,99461.13
2023-01-12T08:49:24.393Z,99454.44
2023-01-12T08:54:26.340Z,99461.63
2023-01-12T08:59:27.945Z,99454.38
2023-01-12T09:04:29.640Z,99454.38
2023-01-12T09:09:31.237Z,99442.59
2023-01-12T09:14:38.488Z,99440.44
2023-01-12T09:19:40.247Z,99453.31
2023-01-12T09:24:41.931Z,99449.13
2023-01-12T09:29:43.634Z,99434.84
2023-01-12T09:34:48.446Z,99423.28
2023-01-12T09:39:50.088Z,99422.75
2023-01-12T09:45:11.554Z,99407.81
2023-01-12T09:50:34.304Z,99390.91
2023-01-12T09:55:47.761Z,99395.22
2023-01-12T10:00:55.207Z,99394.38
2023-01-12T10:06:00.957Z,99394.59
2023-01-12T10:11:12.253Z,99378.94
2023-01-12T10:16:25.589Z,99376.75
2023-01-12T10:21:29.769Z,99378.94
2023-01-12T10:26:39.859Z,99376.09
2023-01-12T10:31:41.559Z,99367.69
2023-01-12T10:36:45.856Z,99354.06
2023-01-12T10:42:07.491Z,99333.44
2023-01-12T10:47:10.738Z,99335.09
2023-01-12T10:52:37.943Z,99330.41
2023-01-12T10:57:44.699Z,99325.69
2023-01-12T11:02:46.531Z,99303.59
2023-01-12T11:07:49.769Z,99283.69
2023-01-12T11:13:24.472Z,99291.75
2023-01-12T11:18:39.093Z,99286.44
2023-01-12T11:23:55.015Z,99272.47
2023-01-12T11:29:02.801Z,99276.16
2023-01-12T11:34:17.087Z,99273.06
2023-01-12T11:39:23.407Z,99266.06
2023-01-12T11:44:31.125Z,99267.78
2023-01-12T11:49:44.616Z,99264.72
2023-01-12T11:54:46.289Z,99241.16
2023-01-12T11:59:47.926Z,99225.41
2023-01-12T12:05:07.089Z,99224.59
2023-01-12T12:10:23.881Z,99238.03
2023-01-12T12:15:41.852Z,99231.00
2023-01-12T12:20:58.490Z,99225.56
2023-01-12T12:26:08.431Z,99222.56
2023-01-12T12:31:29.367Z,99233.28
2023-01-12T12:37:08.415Z,99228.66
2023-01-12T12:42:39.407Z,99230.53
2023-01-12T12:48:06.187Z,99227.19
2023-01-12T12:53:26.206Z,99216.81
2023-01-12T12:58:44.585Z,99207.94
2023-01-12T13:03:53.799Z,99197.25
2023-01-12T13:09:00.713Z,99194.41
2023-01-12T13:14:16.592Z,99170.66
2023-01-12T13:19:43.614Z,99184.88
2023-01-12T13:24:46.070Z,99176.03
2023-01-12T13:29:47.998Z,99176.34
2023-01-12T13:34:52.003Z,99168.81
2023-01-12T13:40:18.399Z,99155.72
2023-01-12T13:45:22.265Z,99168.63
2023-01-12T13:50:26.202Z,99169.13
2023-01-12T13:55:31.186Z,99171.81
2023-01-12T14:00:33.808Z,99167.78
2023-01-12T14:05:55.424Z,99179.00
2023-01-12T14:11:31.174Z,99165.28
2023-01-12T14:17:04.846Z,99180.13
2023-01-12T14:22:18.547Z,99177.66
2023-01-12T14:27:23.255Z,99174.66
2023-01-12T14:32:25.624Z,99173.63
2023-01-12T14:37:32.796Z,99169.41
2023-01-12T14:42:52.823Z,99176.31
2023-01-12T14:47:54.422Z,99177.16
2023-01-12T14:52:56.029Z,99170.16
2023-01-12T14:58:00.765Z,99166.63
2023-01-12T15:03:13.657Z,99171.44
2023-01-12T15:08:31.146Z,99170.78
2023-01-12T15:13:37.883Z,99179.91
2023-01-12T15:18:58.059Z,99172.59
2023-01-12T15:24:18.403Z,99173.16
2023-01-12T15:29:20.007Z,99174.09
2023-01-12T15:34:21.672Z,99166.88
2023-01-12T15:39:23.344Z,99177.69
2023-01-12T15:44:25.103Z,99181.56
2023-01-12T15:49:27.002Z,99173.47
2023-01-12T15:54:28.684Z,99175.91
2023-01-12T15:59:31.988Z,99170.66
2023-01-12T16:04:42.827Z,99172.84
2023-01-12T16:09:49.903Z,99176.91
2023-01-12T16:14:52.028Z,99175.00
2023-01-12T16:19:53.849Z,99175.53
2023-01-12T16:24:56.948Z,99164.13
2023-01-12T16:29:58.599Z,99176.19
2023-01-12T16:35:00.265Z,99169.56
2023-01-12T16:40:01.943Z,99181.72
2023-01-12T16:45:03.858Z,99180.22
2023-01-12T16:50:05.969Z,99168.59
2023-01-12T16:55:07.867Z,99176.75
2023-01-12T17:00:10.905Z,99169.66
2023-01-12T17:05:12.902Z,99146.03
2023-01-12T17:10:17.776Z,99162.09
2023-01-12T17:15:19.484Z,99159.53
2023-01-12T17:20:21.493Z,99154.16
2023-01-12T17:25:23.295Z,99140.75
2023-01-12T17:30:24.906Z,99137.81
2023-01-12T17:35:26.766Z,99142.00
2023-01-12T17:40:29.002Z,99134.69
2023-01-12T17:45:30.675Z,99123.41
2023-01-12T17:50:32.330Z,99143.22
2023-01-12T17:55:36.901Z,99153.06
2023-01-12T18:00:41.555Z,99149.16
2023-01-12T18:05:47.052Z,99153.34
2023-01-12T18:10:48.791Z,99149.00
2023-01-12T18:15:50.466Z,99156.91
2023-01-12T18:20:53.422Z,99150.34
2023-01-12T18:25:55.060Z,99132.16
2023-01-12T18:31:08.080Z,99149.31
2023-01-12T18:36:16.091Z,99153.47
2023-01-12T18:41:37.520Z,99143.19
2023-01-12T18:47:00.208Z,99142.72
2023-01-12T18:52:21.642Z,99126.69
2023-01-12T18:57:26.706Z,99125.50
2023-01-12T19:02:29.962Z,99128.75
2023-01-12T19:07:34.843Z,99124.13
2023-01-12T19:12:36.511Z,99120.34
2023-01-12T19:17:41.792Z,99120.34
2023-01-12T19:23:02.719Z,99110.25
2023-01-12T19:28:23.384Z,99102.38
2023-01-12T19:33:25.031Z,99094.22
2023-01-12T19:38:26.643Z,99109.06
2023-01-12T19:43:30.078Z,99116.72
2023-01-12T19:48:32.668Z,99108.31
2023-01-12T19:53:34.324Z,99102.94
2023-01-12T19:58:36.288Z,99108.56
2023-01-12T20:03:40.105Z,99103.31
2023-01-12T20:08:42.139Z,99093.41
2023-01-12T20:13:43.891Z,99100.53
2023-01-12T20:18:45.572Z,99089.53
2023-01-12T20:23:47.179Z,99096.66
2023-01-12T20:28:48.794Z,99084.53
2023-01-12T20:33:50.403Z,99087.09
2023-01-12T20:38:52.233Z,99090.72
2023-01-12T20:43:53.862Z,99074.00
2023-01-12T20:48:55.506Z,99064.69
2023-01-12T20:53:58.831Z,99065.00
2023-01-12T20:59:01.710Z,99074.63
2023-01-12T21:04:03.463Z,99059.97
2023-01-12T21:09:05.465Z,99052.06
2023-01-12T21:14:07.083Z,99065.00
2023-01-12T21:19:08.905Z,99060.94
2023-01-12T21:24:10.728Z,99052.66
2023-01-12T21:29:12.372Z,99046.59
2023-01-12T21:34:14.015Z,99038.59
2023-01-12T21:39:15.997Z,99037.28
2023-01-12T21:44:17.613Z,99036.28
2023-01-12T21:49:19.221Z,99026.06
2023-01-12T21:54:20.924Z,99024.84
2023-01-12T21:59:22.527Z,99022.06
2023-01-12T22:04:24.188Z,99019.97
2023-01-12T22:09:26.103Z,98999.38
2023-01-12T22:14:27.707Z,99012.28
2023-01-12T22:19:29.323Z,99017.88
2023-01-12T22:24:30.977Z,99015.50
2023-01-12T22:29:32.722Z,99011.16
2023-01-12T22:34:34.371Z,99024.59
2023-01-12T22:39:35.988Z,99019.09
2023-01-12T22:44:37.633Z,99024.16
2023-01-12T22:49:39.656Z,99036.69
2023-01-12T22:54:41.308Z,99022.22
2023-01-12T22:59:42.935Z,99014.16
2023-01-12T23:04:44.652Z,99018.31
2023-01-12T23:09:46.797Z,98993.47
2023-01-12T23:14:48.527Z,99006.72
2023-01-12T23:19:50.362Z,98995.00
2023-01-12T23:24:52.109Z,98987.41
2023-01-12T23:29:53.829Z,98987.19
2023-01-12T23:34:55.538Z,98997.88
2023-01-12T23:39:57.259Z,98972.19
2023-01-12T23:44:59.031Z,98975.94
2023-01-12T23:50:00.854Z,98980.69
2023-01-12T23:55:02.602Z,98982.22
